sensor_id;sensor_type;location;lat;lon;timestamp;P1;durP1;ratioP1;P2;durP2;ratioP2
77866;SDS011;67271;59.120;37.970;2023-11-19T00:04:14;2.92;;;1.50;;
77866;SDS011;67271;59.120;37.970;2023-11-19T00:06:40;1.02;;;1.00;;
77866;SDS011;67271;59.120;37.970;2023-11-19T00:09:06;1.52;;;1.30;;
77866;SDS011;67271;59.120;37.970;2023-11-19T00:11:33;1.88;;;1.33;;
77866;SDS011;67271;59.120;37.970;2023-11-19T00:13:59;1.33;;;1.23;;
77866;SDS011;67271;59.120;37.970;2023-11-19T00:16:24;9.65;;;2.08;;
77866;SDS011;67271;59.120;37.970;2023-11-19T00:18:51;3.22;;;1.95;;
77866;SDS011;67271;59.120;37.970;2023-11-19T00:21:16;1.00;;;1.00;;
77866;SDS011;67271;59.120;37.970;2023-11-19T00:23:42;1.65;;;1.17;;
77866;SDS011;67271;59.120;37.970;2023-11-19T00:26:08;1.23;;;1.13;;
77866;SDS011;67271;59.120;37.970;2023-11-19T00:28:36;2.78;;;2.00;;
77866;SDS011;67271;59.120;37.970;2023-11-19T00:31:04;1.83;;;1.25;;
77866;SDS011;67271;59.120;37.970;2023-11-19T00:33:30;9.48;;;3.35;;
77866;SDS011;67271;59.120;37.970;2023-11-19T00:35:56;2.00;;;1.80;;
77866;SDS011;67271;59.120;37.970;2023-11-19T00:38:22;0.50;;;0.50;;
77866;SDS011;67271;59.120;37.970;2023-11-19T00:40:48;1.15;;;0.85;;
77866;SDS011;67271;59.120;37.970;2023-11-19T00:43:14;2.55;;;1.65;;
77866;SDS011;67271;59.120;37.970;2023-11-19T00:45:39;1.55;;;1.13;;
77866;SDS011;67271;59.120;37.970;2023-11-19T00:48:05;6.65;;;4.35;;
77866;SDS011;67271;59.120;37.970;2023-11-19T00:50:32;0.98;;;0.95;;
77866;SDS011;67271;59.120;37.970;2023-11-19T00:52:58;2.38;;;1.65;;
77866;SDS011;67271;59.120;37.970;2023-11-19T00:55:24;3.95;;;1.40;;
77866;SDS011;67271;59.120;37.970;2023-11-19T00:57:50;1.80;;;1.70;;
77866;SDS011;67271;59.120;37.970;2023-11-19T01:00:15;3.17;;;1.80;;
77866;SDS011;67271;59.120;37.970;2023-11-19T01:02:45;2.00;;;1.63;;
77866;SDS011;67271;59.120;37.970;2023-11-19T01:05:11;3.03;;;1.83;;
77866;SDS011;67271;59.120;37.970;2023-11-19T01:07:39;1.90;;;1.80;;
77866;SDS011;67271;59.120;37.970;2023-11-19T01:10:05;2.42;;;1.52;;
77866;SDS011;67271;59.120;37.970;2023-11-19T01:12:33;2.05;;;1.80;;
77866;SDS011;67271;59.120;37.970;2023-11-19T01:14:59;1.20;;;1.10;;
77866;SDS011;67271;59.120;37.970;2023-11-19T01:17:27;1.40;;;1.30;;
77866;SDS011;67271;59.120;37.970;2023-11-19T01:19:53;2.28;;;1.95;;
77866;SDS011;67271;59.120;37.970;2023-11-19T01:22:19;1.63;;;1.27;;
77866;SDS011;67271;59.120;37.970;2023-11-19T01:24:45;1.27;;;1.17;;
77866;SDS011;67271;59.120;37.970;2023-11-19T01:27:12;1.00;;;0.90;;
77866;SDS011;67271;59.120;37.970;2023-11-19T01:29:38;2.58;;;1.35;;
77866;SDS011;67271;59.120;37.970;2023-11-19T01:32:05;0.77;;;0.77;;
77866;SDS011;67271;59.120;37.970;2023-11-19T01:34:31;0.85;;;0.85;;
77866;SDS011;67271;59.120;37.970;2023-11-19T01:36:57;1.58;;;1.48;;
77866;SDS011;67271;59.120;37.970;2023-11-19T01:39:23;1.52;;;1.15;;
77866;SDS011;67271;59.120;37.970;2023-11-19T01:41:49;1.13;;;0.95;;
77866;SDS011;67271;59.120;37.970;2023-11-19T01:44:15;1.30;;;0.80;;
77866;SDS011;67271;59.120;37.970;2023-11-19T01:46:42;0.80;;;0.80;;
77866;SDS011;67271;59.120;37.970;2023-11-19T01:49:14;0.93;;;0.73;;
77866;SDS011;67271;59.120;37.970;2023-11-19T01:51:40;1.65;;;1.55;;
77866;SDS011;67271;59.120;37.970;2023-11-19T01:54:07;0.73;;;0.73;;
77866;SDS011;67271;59.120;37.970;2023-11-19T01:56:34;1.95;;;1.55;;
77866;SDS011;67271;59.120;37.970;2023-11-19T01:59:01;2.83;;;1.95;;
77866;SDS011;67271;59.120;37.970;2023-11-19T02:01:28;3.05;;;1.90;;
77866;SDS011;67271;59.120;37.970;2023-11-19T02:03:55;1.15;;;1.08;;
77866;SDS011;67271;59.120;37.970;2023-11-19T02:06:21;2.33;;;2.15;;
77866;SDS011;67271;59.120;37.970;2023-11-19T02:08:47;1.73;;;1.25;;
77866;SDS011;67271;59.120;37.970;2023-11-19T02:11:13;1.65;;;1.20;;
77866;SDS011;67271;59.120;37.970;2023-11-19T02:13:38;2.63;;;1.30;;
77866;SDS011;67271;59.120;37.970;2023-11-19T02:16:06;0.45;;;0.45;;
77866;SDS011;67271;59.120;37.970;2023-11-19T02:18:34;3.35;;;2.00;;
77866;SDS011;67271;59.120;37.970;2023-11-19T02:21:00;1.45;;;1.35;;
77866;SDS011;67271;59.120;37.970;2023-11-19T02:23:26;2.78;;;2.28;;
77866;SDS011;67271;59.120;37.970;2023-11-19T02:26:06;1.40;;;1.30;;
77866;SDS011;67271;59.120;37.970;2023-11-19T02:28:43;2.70;;;1.45;;
77866;SDS011;67271;59.120;37.970;2023-11-19T02:31:10;2.70;;;1.77;;
77866;SDS011;67271;59.120;37.970;2023-11-19T02:33:37;2.17;;;1.35;;
77866;SDS011;67271;59.120;37.970;2023-11-19T02:36:04;1.65;;;1.42;;
77866;SDS011;67271;59.120;37.970;2023-11-19T02:38:30;1.52;;;1.25;;
77866;SDS011;67271;59.120;37.970;2023-11-19T02:40:56;1.42;;;1.33;;
77866;SDS011;67271;59.120;37.970;2023-11-19T02:43:22;4.53;;;2.10;;
77866;SDS011;67271;59.120;37.970;2023-11-19T02:45:48;1.88;;;1.48;;
77866;SDS011;67271;59.120;37.970;2023-11-19T02:48:14;2.22;;;1.10;;
77866;SDS011;67271;59.120;37.970;2023-11-19T02:50:44;1.98;;;1.63;;
77866;SDS011;67271;59.120;37.970;2023-11-19T02:53:11;2.47;;;1.75;;
77866;SDS011;67271;59.120;37.970;2023-11-19T02:55:38;1.67;;;1.58;;
77866;SDS011;67271;59.120;37.970;2023-11-19T02:58:06;2.38;;;1.92;;
77866;SDS011;67271;59.120;37.970;2023-11-19T03:00:45;1.50;;;1.40;;
77866;SDS011;67271;59.120;37.970;2023-11-19T03:03:19;1.92;;;1.48;;
77866;SDS011;67271;59.120;37.970;2023-11-19T03:05:47;2.88;;;1.73;;
77866;SDS011;67271;59.120;37.970;2023-11-19T03:08:14;2.78;;;1.83;;
77866;SDS011;67271;59.120;37.970;2023-11-19T03:10:41;2.97;;;1.48;;
77866;SDS011;67271;59.120;37.970;2023-11-19T03:13:10;2.28;;;1.48;;
77866;SDS011;67271;59.120;37.970;2023-11-19T03:15:39;2.10;;;1.30;;
77866;SDS011;67271;59.120;37.970;2023-11-19T03:18:05;2.13;;;1.50;;
77866;SDS011;67271;59.120;37.970;2023-11-19T03:20:31;2.63;;;1.75;;
77866;SDS011;67271;59.120;37.970;2023-11-19T03:22:57;2.20;;;1.80;;
77866;SDS011;67271;59.120;37.970;2023-11-19T03:25:26;3.75;;;2.10;;
77866;SDS011;67271;59.120;37.970;2023-11-19T03:28:00;1.00;;;1.00;;
77866;SDS011;67271;59.120;37.970;2023-11-19T03:30:27;2.80;;;1.98;;
77866;SDS011;67271;59.120;37.970;2023-11-19T03:32:54;2.70;;;2.15;;
77866;SDS011;67271;59.120;37.970;2023-11-19T03:35:23;2.05;;;1.60;;
77866;SDS011;67271;59.120;37.970;2023-11-19T03:37:50;2.05;;;1.60;;
77866;SDS011;67271;59.120;37.970;2023-11-19T03:40:17;1.45;;;0.98;;
77866;SDS011;67271;59.120;37.970;2023-11-19T03:42:47;1.52;;;1.40;;
77866;SDS011;67271;59.120;37.970;2023-11-19T03:45:13;3.15;;;2.08;;
77866;SDS011;67271;59.120;37.970;2023-11-19T03:47:39;2.47;;;1.90;;
77866;SDS011;67271;59.120;37.970;2023-11-19T03:50:06;2.20;;;1.88;;
77866;SDS011;67271;59.120;37.970;2023-11-19T03:52:33;2.75;;;1.77;;
77866;SDS011;67271;59.120;37.970;2023-11-19T03:54:59;4.47;;;1.77;;
77866;SDS011;67271;59.120;37.970;2023-11-19T03:57:26;5.00;;;1.88;;
77866;SDS011;67271;59.120;37.970;2023-11-19T03:59:53;3.95;;;2.65;;
77866;SDS011;67271;59.120;37.970;2023-11-19T04:02:20;4.78;;;2.30;;
77866;SDS011;67271;59.120;37.970;2023-11-19T04:04:46;3.10;;;2.25;;
77866;SDS011;67271;59.120;37.970;2023-11-19T04:07:13;4.47;;;2.72;;
77866;SDS011;67271;59.120;37.970;2023-11-19T04:09:39;3.60;;;2.28;;
77866;SDS011;67271;59.120;37.970;2023-11-19T04:12:05;3.92;;;2.67;;
77866;SDS011;67271;59.120;37.970;2023-11-19T04:14:32;3.67;;;2.58;;
77866;SDS011;67271;59.120;37.970;2023-11-19T04:16:58;4.97;;;3.13;;
77866;SDS011;67271;59.120;37.970;2023-11-19T04:19:23;4.15;;;2.72;;
77866;SDS011;67271;59.120;37.970;2023-11-19T04:21:49;5.20;;;2.97;;
77866;SDS011;67271;59.120;37.970;2023-11-19T04:24:16;2.88;;;2.45;;
77866;SDS011;67271;59.120;37.970;2023-11-19T04:26:43;5.30;;;2.83;;
77866;SDS011;67271;59.120;37.970;2023-11-19T04:29:13;6.07;;;2.63;;
77866;SDS011;67271;59.120;37.970;2023-11-19T04:31:40;2.95;;;2.17;;
77866;SDS011;67271;59.120;37.970;2023-11-19T04:34:07;4.15;;;2.58;;
77866;SDS011;67271;59.120;37.970;2023-11-19T04:36:33;4.88;;;2.35;;
77866;SDS011;67271;59.120;37.970;2023-11-19T04:38:59;2.58;;;1.98;;
77866;SDS011;67271;59.120;37.970;2023-11-19T04:41:26;4.63;;;3.03;;
77866;SDS011;67271;59.120;37.970;2023-11-19T04:43:55;4.95;;;2.33;;
77866;SDS011;67271;59.120;37.970;2023-11-19T04:46:21;6.80;;;3.10;;
77866;SDS011;67271;59.120;37.970;2023-11-19T04:48:49;4.28;;;3.53;;
77866;SDS011;67271;59.120;37.970;2023-11-19T04:51:15;4.00;;;2.92;;
77866;SDS011;67271;59.120;37.970;2023-11-19T04:53:42;4.80;;;2.67;;
77866;SDS011;67271;59.120;37.970;2023-11-19T04:56:08;5.20;;;2.80;;
77866;SDS011;67271;59.120;37.970;2023-11-19T04:58:34;2.47;;;1.90;;
77866;SDS011;67271;59.120;37.970;2023-11-19T05:01:02;3.38;;;2.33;;
77866;SDS011;67271;59.120;37.970;2023-11-19T05:03:31;3.90;;;2.33;;
77866;SDS011;67271;59.120;37.970;2023-11-19T05:05:57;2.85;;;2.47;;
77866;SDS011;67271;59.120;37.970;2023-11-19T05:08:23;12.57;;;2.97;;
77866;SDS011;67271;59.120;37.970;2023-11-19T05:10:49;1.67;;;1.42;;
77866;SDS011;67271;59.120;37.970;2023-11-19T05:13:15;2.08;;;1.83;;
77866;SDS011;67271;59.120;37.970;2023-11-19T05:15:42;2.63;;;2.42;;
77866;SDS011;67271;59.120;37.970;2023-11-19T05:18:08;5.28;;;3.20;;
77866;SDS011;67271;59.120;37.970;2023-11-19T05:20:34;6.57;;;4.32;;
77866;SDS011;67271;59.120;37.970;2023-11-19T05:23:00;6.55;;;3.33;;
77866;SDS011;67271;59.120;37.970;2023-11-19T05:25:26;5.30;;;3.20;;
77866;SDS011;67271;59.120;37.970;2023-11-19T05:27:52;2.35;;;1.80;;
77866;SDS011;67271;59.120;37.970;2023-11-19T05:30:19;3.97;;;2.92;;
77866;SDS011;67271;59.120;37.970;2023-11-19T05:32:45;6.35;;;3.33;;
77866;SDS011;67271;59.120;37.970;2023-11-19T05:35:11;6.15;;;3.92;;
77866;SDS011;67271;59.120;37.970;2023-11-19T05:37:37;1.48;;;1.33;;
77866;SDS011;67271;59.120;37.970;2023-11-19T05:40:03;6.90;;;4.90;;
77866;SDS011;67271;59.120;37.970;2023-11-19T05:42:33;4.22;;;2.80;;
77866;SDS011;67271;59.120;37.970;2023-11-19T05:45:00;7.32;;;3.95;;
77866;SDS011;67271;59.120;37.970;2023-11-19T05:47:26;3.58;;;2.92;;
77866;SDS011;67271;59.120;37.970;2023-11-19T05:49:52;7.78;;;3.88;;
77866;SDS011;67271;59.120;37.970;2023-11-19T05:52:17;9.32;;;3.65;;
77866;SDS011;67271;59.120;37.970;2023-11-19T05:54:43;4.18;;;3.10;;
77866;SDS011;67271;59.120;37.970;2023-11-19T05:57:09;4.90;;;3.50;;
77866;SDS011;67271;59.120;37.970;2023-11-19T05:59:35;4.90;;;3.45;;
77866;SDS011;67271;59.120;37.970;2023-11-19T06:02:02;3.25;;;2.15;;
77866;SDS011;67271;59.120;37.970;2023-11-19T06:04:29;5.55;;;3.45;;
77866;SDS011;67271;59.120;37.970;2023-11-19T06:06:55;4.45;;;2.40;;
77866;SDS011;67271;59.120;37.970;2023-11-19T06:09:21;5.22;;;3.33;;
77866;SDS011;67271;59.120;37.970;2023-11-19T06:11:48;4.60;;;2.67;;
77866;SDS011;67271;59.120;37.970;2023-11-19T06:14:18;8.63;;;3.42;;
77866;SDS011;67271;59.120;37.970;2023-11-19T06:16:44;6.55;;;3.65;;
77866;SDS011;67271;59.120;37.970;2023-11-19T06:19:10;7.82;;;3.33;;
77866;SDS011;67271;59.120;37.970;2023-11-19T06:21:37;7.43;;;4.32;;
77866;SDS011;67271;59.120;37.970;2023-11-19T06:24:03;7.00;;;3.80;;
77866;SDS011;67271;59.120;37.970;2023-11-19T06:26:29;8.48;;;3.90;;
77866;SDS011;67271;59.120;37.970;2023-11-19T06:28:55;7.10;;;4.22;;
77866;SDS011;67271;59.120;37.970;2023-11-19T06:31:20;5.85;;;2.90;;
77866;SDS011;67271;59.120;37.970;2023-11-19T06:33:47;4.95;;;3.05;;
77866;SDS011;67271;59.120;37.970;2023-11-19T06:36:15;8.25;;;4.38;;
77866;SDS011;67271;59.120;37.970;2023-11-19T06:38:42;6.07;;;4.32;;
77866;SDS011;67271;59.120;37.970;2023-11-19T06:41:08;7.78;;;3.90;;
77866;SDS011;67271;59.120;37.970;2023-11-19T06:43:35;5.93;;;4.00;;
77866;SDS011;67271;59.120;37.970;2023-11-19T06:46:02;4.68;;;3.58;;
77866;SDS011;67271;59.120;37.970;2023-11-19T06:48:31;13.75;;;4.10;;
77866;SDS011;67271;59.120;37.970;2023-11-19T06:50:58;9.63;;;5.03;;
77866;SDS011;67271;59.120;37.970;2023-11-19T06:53:24;16.83;;;4.55;;
77866;SDS011;67271;59.120;37.970;2023-11-19T06:55:50;8.60;;;3.67;;
77866;SDS011;67271;59.120;37.970;2023-11-19T06:58:16;8.65;;;4.55;;
77866;SDS011;67271;59.120;37.970;2023-11-19T07:00:43;11.65;;;4.70;;
77866;SDS011;67271;59.120;37.970;2023-11-19T07:03:09;9.65;;;5.00;;
77866;SDS011;67271;59.120;37.970;2023-11-19T07:05:36;4.82;;;2.85;;
77866;SDS011;67271;59.120;37.970;2023-11-19T07:08:04;11.35;;;5.00;;
77866;SDS011;67271;59.120;37.970;2023-11-19T07:10:32;6.70;;;3.90;;
77866;SDS011;67271;59.120;37.970;2023-11-19T07:12:59;24.10;;;6.50;;
77866;SDS011;67271;59.120;37.970;2023-11-19T07:15:25;21.88;;;4.75;;
77866;SDS011;67271;59.120;37.970;2023-11-19T07:17:51;10.15;;;5.03;;
77866;SDS011;67271;59.120;37.970;2023-11-19T07:20:19;12.82;;;5.70;;
77866;SDS011;67271;59.120;37.970;2023-11-19T07:22:45;9.50;;;5.13;;
77866;SDS011;67271;59.120;37.970;2023-11-19T07:25:14;11.27;;;5.50;;
77866;SDS011;67271;59.120;37.970;2023-11-19T07:27:40;12.00;;;6.20;;
77866;SDS011;67271;59.120;37.970;2023-11-19T07:30:06;9.98;;;5.05;;
77866;SDS011;67271;59.120;37.970;2023-11-19T07:32:33;4.60;;;3.97;;
77866;SDS011;67271;59.120;37.970;2023-11-19T07:34:59;6.50;;;4.45;;
77866;SDS011;67271;59.120;37.970;2023-11-19T07:37:25;5.80;;;4.40;;
77866;SDS011;67271;59.120;37.970;2023-11-19T07:39:51;9.18;;;5.22;;
77866;SDS011;67271;59.120;37.970;2023-11-19T07:42:17;12.55;;;5.85;;
77866;SDS011;67271;59.120;37.970;2023-11-19T07:44:43;14.35;;;5.38;;
77866;SDS011;67271;59.120;37.970;2023-11-19T07:47:09;9.45;;;4.82;;
77866;SDS011;67271;59.120;37.970;2023-11-19T07:49:35;10.55;;;5.32;;
77866;SDS011;67271;59.120;37.970;2023-11-19T07:52:01;23.45;;;6.00;;
77866;SDS011;67271;59.120;37.970;2023-11-19T07:54:28;15.77;;;6.38;;
77866;SDS011;67271;59.120;37.970;2023-11-19T07:56:54;13.20;;;5.22;;
77866;SDS011;67271;59.120;37.970;2023-11-19T07:59:20;10.32;;;4.70;;
77866;SDS011;67271;59.120;37.970;2023-11-19T08:01:46;7.63;;;5.30;;
77866;SDS011;67271;59.120;37.970;2023-11-19T08:04:13;12.70;;;5.13;;
77866;SDS011;67271;59.120;37.970;2023-11-19T08:06:39;7.82;;;4.35;;
77866;SDS011;67271;59.120;37.970;2023-11-19T08:09:05;7.40;;;3.95;;
77866;SDS011;67271;59.120;37.970;2023-11-19T08:11:32;11.95;;;4.65;;
77866;SDS011;67271;59.120;37.970;2023-11-19T08:13:58;13.27;;;5.03;;
77866;SDS011;67271;59.120;37.970;2023-11-19T08:16:24;5.70;;;3.83;;
77866;SDS011;67271;59.120;37.970;2023-11-19T08:18:50;20.60;;;4.35;;
77866;SDS011;67271;59.120;37.970;2023-11-19T08:21:16;7.85;;;3.33;;
77866;SDS011;67271;59.120;37.970;2023-11-19T08:23:42;20.13;;;4.82;;
77866;SDS011;67271;59.120;37.970;2023-11-19T08:26:08;13.40;;;4.70;;
77866;SDS011;67271;59.120;37.970;2023-11-19T08:28:35;4.60;;;2.88;;
77866;SDS011;67271;59.120;37.970;2023-11-19T08:31:00;8.30;;;5.50;;
77866;SDS011;67271;59.120;37.970;2023-11-19T08:33:27;6.95;;;4.45;;
77866;SDS011;67271;59.120;37.970;2023-11-19T08:35:53;7.38;;;3.88;;
77866;SDS011;67271;59.120;37.970;2023-11-19T08:38:18;7.82;;;3.53;;
77866;SDS011;67271;59.120;37.970;2023-11-19T08:40:44;9.02;;;4.30;;
77866;SDS011;67271;59.120;37.970;2023-11-19T08:43:10;5.72;;;3.50;;
77866;SDS011;67271;59.120;37.970;2023-11-19T08:45:36;3.83;;;2.70;;
77866;SDS011;67271;59.120;37.970;2023-11-19T08:48:02;9.50;;;3.78;;
77866;SDS011;67271;59.120;37.970;2023-11-19T08:50:28;6.90;;;3.72;;
77866;SDS011;67271;59.120;37.970;2023-11-19T08:52:54;13.05;;;5.90;;
77866;SDS011;67271;59.120;37.970;2023-11-19T08:55:20;6.63;;;3.15;;
77866;SDS011;67271;59.120;37.970;2023-11-19T08:57:46;7.80;;;4.32;;
77866;SDS011;67271;59.120;37.970;2023-11-19T09:00:11;6.45;;;3.92;;
77866;SDS011;67271;59.120;37.970;2023-11-19T09:02:39;9.95;;;3.92;;
77866;SDS011;67271;59.120;37.970;2023-11-19T09:05:05;6.90;;;3.47;;
77866;SDS011;67271;59.120;37.970;2023-11-19T09:07:34;7.57;;;4.93;;
77866;SDS011;67271;59.120;37.970;2023-11-19T09:10:00;6.13;;;3.88;;
77866;SDS011;67271;59.120;37.970;2023-11-19T09:12:27;5.45;;;3.63;;
77866;SDS011;67271;59.120;37.970;2023-11-19T09:14:52;8.30;;;5.05;;
77866;SDS011;67271;59.120;37.970;2023-11-19T09:17:18;12.40;;;4.53;;
77866;SDS011;67271;59.120;37.970;2023-11-19T09:19:44;7.15;;;3.58;;
77866;SDS011;67271;59.120;37.970;2023-11-19T09:22:11;7.80;;;4.43;;
77866;SDS011;67271;59.120;37.970;2023-11-19T09:24:36;10.80;;;3.80;;
77866;SDS011;67271;59.120;37.970;2023-11-19T09:27:02;6.20;;;3.28;;
77866;SDS011;67271;59.120;37.970;2023-11-19T09:29:31;3.72;;;2.95;;
77866;SDS011;67271;59.120;37.970;2023-11-19T09:31:57;7.18;;;3.95;;
77866;SDS011;67271;59.120;37.970;2023-11-19T09:34:23;5.20;;;3.10;;
77866;SDS011;67271;59.120;37.970;2023-11-19T09:36:49;5.47;;;3.50;;
77866;SDS011;67271;59.120;37.970;2023-11-19T09:39:15;10.57;;;5.25;;
77866;SDS011;67271;59.120;37.970;2023-11-19T09:41:43;6.63;;;4.10;;
77866;SDS011;67271;59.120;37.970;2023-11-19T09:44:10;7.10;;;3.53;;
77866;SDS011;67271;59.120;37.970;2023-11-19T09:46:37;5.88;;;3.40;;
77866;SDS011;67271;59.120;37.970;2023-11-19T09:49:06;8.32;;;3.63;;
77866;SDS011;67271;59.120;37.970;2023-11-19T09:51:35;5.20;;;3.75;;
77866;SDS011;67271;59.120;37.970;2023-11-19T09:54:04;5.28;;;3.40;;
77866;SDS011;67271;59.120;37.970;2023-11-19T09:56:30;10.35;;;4.38;;
77866;SDS011;67271;59.120;37.970;2023-11-19T09:58:58;6.35;;;3.00;;
77866;SDS011;67271;59.120;37.970;2023-11-19T10:01:24;5.07;;;3.10;;
77866;SDS011;67271;59.120;37.970;2023-11-19T10:03:50;5.57;;;3.55;;
77866;SDS011;67271;59.120;37.970;2023-11-19T10:06:20;7.45;;;3.85;;
77866;SDS011;67271;59.120;37.970;2023-11-19T10:08:46;6.22;;;4.25;;
77866;SDS011;67271;59.120;37.970;2023-11-19T10:11:12;6.07;;;3.55;;
77866;SDS011;67271;59.120;37.970;2023-11-19T10:13:38;6.25;;;4.15;;
77866;SDS011;67271;59.120;37.970;2023-11-19T10:16:08;6.57;;;3.67;;
77866;SDS011;67271;59.120;37.970;2023-11-19T10:18:37;6.80;;;3.67;;
77866;SDS011;67271;59.120;37.970;2023-11-19T10:21:04;8.50;;;3.85;;
77866;SDS011;67271;59.120;37.970;2023-11-19T10:23:31;4.10;;;3.30;;
77866;SDS011;67271;59.120;37.970;2023-11-19T10:26:12;6.47;;;3.03;;
77866;SDS011;67271;59.120;37.970;2023-11-19T10:28:39;7.93;;;4.47;;
77866;SDS011;67271;59.120;37.970;2023-11-19T10:31:06;15.02;;;3.92;;
77866;SDS011;67271;59.120;37.970;2023-11-19T10:33:32;5.97;;;3.38;;
77866;SDS011;67271;59.120;37.970;2023-11-19T10:35:58;4.97;;;3.10;;
77866;SDS011;67271;59.120;37.970;2023-11-19T10:38:25;4.22;;;3.33;;
77866;SDS011;67271;59.120;37.970;2023-11-19T10:40:51;6.75;;;3.65;;
77866;SDS011;67271;59.120;37.970;2023-11-19T10:43:18;7.38;;;4.88;;
77866;SDS011;67271;59.120;37.970;2023-11-19T10:45:44;7.43;;;3.50;;
77866;SDS011;67271;59.120;37.970;2023-11-19T10:48:10;5.63;;;3.60;;
77866;SDS011;67271;59.120;37.970;2023-11-19T10:50:39;6.32;;;3.35;;
77866;SDS011;67271;59.120;37.970;2023-11-19T10:53:07;7.35;;;4.03;;
77866;SDS011;67271;59.120;37.970;2023-11-19T10:55:35;6.88;;;3.30;;
77866;SDS011;67271;59.120;37.970;2023-11-19T10:58:04;6.30;;;3.42;;
77866;SDS011;67271;59.120;37.970;2023-11-19T11:03:24;4.97;;;3.90;;
77866;SDS011;67271;59.120;37.970;2023-11-19T11:05:52;4.07;;;2.42;;
77866;SDS011;67271;59.120;37.970;2023-11-19T11:08:19;8.38;;;4.32;;
77866;SDS011;67271;59.120;37.970;2023-11-19T11:10:52;7.07;;;3.20;;
77866;SDS011;67271;59.120;37.970;2023-11-19T11:13:23;7.20;;;4.20;;
77866;SDS011;67271;59.120;37.970;2023-11-19T11:15:50;8.05;;;3.47;;
77866;SDS011;67271;59.120;37.970;2023-11-19T11:18:16;4.57;;;2.92;;
77866;SDS011;67271;59.120;37.970;2023-11-19T11:20:44;14.40;;;6.85;;
77866;SDS011;67271;59.120;37.970;2023-11-19T11:28:39;7.95;;;4.30;;
77866;SDS011;67271;59.120;37.970;2023-11-19T11:36:51;12.75;;;3.58;;
77866;SDS011;67271;59.120;37.970;2023-11-19T11:39:33;6.63;;;4.22;;
77866;SDS011;67271;59.120;37.970;2023-11-19T11:42:42;13.52;;;4.15;;
77866;SDS011;67271;59.120;37.970;2023-11-19T11:45:10;8.15;;;5.18;;
77866;SDS011;67271;59.120;37.970;2023-11-19T11:50:11;8.13;;;3.97;;
77866;SDS011;67271;59.120;37.970;2023-11-19T11:55:35;8.07;;;3.03;;
77866;SDS011;67271;59.120;37.970;2023-11-19T11:58:02;11.68;;;4.25;;
77866;SDS011;67271;59.120;37.970;2023-11-19T12:00:36;8.80;;;4.13;;
77866;SDS011;67271;59.120;37.970;2023-11-19T12:03:04;8.48;;;3.15;;
77866;SDS011;67271;59.120;37.970;2023-11-19T12:05:41;5.35;;;3.63;;
77866;SDS011;67271;59.120;37.970;2023-11-19T12:08:09;4.63;;;2.30;;
77866;SDS011;67271;59.120;37.970;2023-11-19T12:10:49;9.48;;;4.40;;
77866;SDS011;67271;59.120;37.970;2023-11-19T12:13:17;4.65;;;2.88;;
77866;SDS011;67271;59.120;37.970;2023-11-19T12:18:26;6.40;;;4.07;;
77866;SDS011;67271;59.120;37.970;2023-11-19T12:20:53;7.88;;;4.03;;
77866;SDS011;67271;59.120;37.970;2023-11-19T12:23:19;8.50;;;4.03;;
77866;SDS011;67271;59.120;37.970;2023-11-19T12:25:45;10.13;;;4.78;;
77866;SDS011;67271;59.120;37.970;2023-11-19T12:28:14;3.80;;;2.80;;
77866;SDS011;67271;59.120;37.970;2023-11-19T12:30:42;5.38;;;3.47;;
77866;SDS011;67271;59.120;37.970;2023-11-19T12:33:11;5.63;;;4.10;;
77866;SDS011;67271;59.120;37.970;2023-11-19T12:35:41;4.40;;;3.20;;
77866;SDS011;67271;59.120;37.970;2023-11-19T12:38:09;9.60;;;4.85;;
77866;SDS011;67271;59.120;37.970;2023-11-19T12:43:10;4.30;;;2.83;;
77866;SDS011;67271;59.120;37.970;2023-11-19T12:48:12;5.43;;;2.30;;
77866;SDS011;67271;59.120;37.970;2023-11-19T12:50:54;4.95;;;2.92;;
77866;SDS011;67271;59.120;37.970;2023-11-19T12:53:25;5.18;;;3.22;;
77866;SDS011;67271;59.120;37.970;2023-11-19T12:55:52;5.43;;;2.83;;
77866;SDS011;67271;59.120;37.970;2023-11-19T12:58:30;3.97;;;3.50;;
77866;SDS011;67271;59.120;37.970;2023-11-19T13:01:04;2.83;;;1.63;;
77866;SDS011;67271;59.120;37.970;2023-11-19T13:03:31;4.95;;;2.95;;
77866;SDS011;67271;59.120;37.970;2023-11-19T13:06:05;5.03;;;3.17;;
77866;SDS011;67271;59.120;37.970;2023-11-19T13:08:41;5.95;;;3.72;;
77866;SDS011;67271;59.120;37.970;2023-11-19T13:11:35;6.07;;;2.70;;
77866;SDS011;67271;59.120;37.970;2023-11-19T13:14:04;5.78;;;2.45;;
77866;SDS011;67271;59.120;37.970;2023-11-19T13:16:35;4.38;;;3.42;;
77866;SDS011;67271;59.120;37.970;2023-11-19T13:19:02;5.05;;;3.35;;
77866;SDS011;67271;59.120;37.970;2023-11-19T13:21:28;4.75;;;3.10;;
77866;SDS011;67271;59.120;37.970;2023-11-19T13:23:57;4.32;;;2.75;;
77866;SDS011;67271;59.120;37.970;2023-11-19T13:26:23;4.22;;;2.20;;
77866;SDS011;67271;59.120;37.970;2023-11-19T13:28:48;3.40;;;2.30;;
77866;SDS011;67271;59.120;37.970;2023-11-19T13:31:15;4.80;;;3.20;;
77866;SDS011;67271;59.120;37.970;2023-11-19T13:33:41;4.90;;;3.00;;
77866;SDS011;67271;59.120;37.970;2023-11-19T13:36:08;3.50;;;2.13;;
77866;SDS011;67271;59.120;37.970;2023-11-19T13:38:34;5.80;;;3.35;;
77866;SDS011;67271;59.120;37.970;2023-11-19T13:41:02;6.18;;;3.63;;
77866;SDS011;67271;59.120;37.970;2023-11-19T13:43:29;3.38;;;2.22;;
77866;SDS011;67271;59.120;37.970;2023-11-19T13:45:56;4.45;;;2.55;;
77866;SDS011;67271;59.120;37.970;2023-11-19T13:48:23;4.93;;;3.30;;
77866;SDS011;67271;59.120;37.970;2023-11-19T13:50:50;4.43;;;3.00;;
77866;SDS011;67271;59.120;37.970;2023-11-19T13:53:16;4.85;;;2.85;;
77866;SDS011;67271;59.120;37.970;2023-11-19T13:55:42;4.20;;;2.67;;
77866;SDS011;67271;59.120;37.970;2023-11-19T13:58:09;5.00;;;3.65;;
77866;SDS011;67271;59.120;37.970;2023-11-19T14:00:35;2.20;;;1.73;;
77866;SDS011;67271;59.120;37.970;2023-11-19T14:03:02;4.13;;;2.60;;
77866;SDS011;67271;59.120;37.970;2023-11-19T14:05:28;3.65;;;2.03;;
77866;SDS011;67271;59.120;37.970;2023-11-19T14:07:54;3.42;;;1.80;;
77866;SDS011;67271;59.120;37.970;2023-11-19T14:10:22;2.65;;;2.17;;
77866;SDS011;67271;59.120;37.970;2023-11-19T14:12:48;4.50;;;2.72;;
77866;SDS011;67271;59.120;37.970;2023-11-19T14:15:15;2.45;;;2.03;;
77866;SDS011;67271;59.120;37.970;2023-11-19T14:17:44;3.67;;;2.55;;
77866;SDS011;67271;59.120;37.970;2023-11-19T14:20:11;4.70;;;2.20;;
77866;SDS011;67271;59.120;37.970;2023-11-19T14:22:41;2.83;;;1.70;;
77866;SDS011;67271;59.120;37.970;2023-11-19T14:25:08;3.08;;;1.98;;
77866;SDS011;67271;59.120;37.970;2023-11-19T14:27:41;6.22;;;3.08;;
77866;SDS011;67271;59.120;37.970;2023-11-19T14:30:09;4.38;;;2.03;;
77866;SDS011;67271;59.120;37.970;2023-11-19T14:32:39;3.08;;;1.98;;
77866;SDS011;67271;59.120;37.970;2023-11-19T14:35:07;4.88;;;3.17;;
77866;SDS011;67271;59.120;37.970;2023-11-19T14:37:33;5.15;;;2.15;;
77866;SDS011;67271;59.120;37.970;2023-11-19T14:40:00;2.97;;;2.25;;
77866;SDS011;67271;59.120;37.970;2023-11-19T14:42:28;2.60;;;1.90;;
77866;SDS011;67271;59.120;37.970;2023-11-19T14:44:53;4.38;;;2.42;;
77866;SDS011;67271;59.120;37.970;2023-11-19T14:47:20;3.00;;;2.05;;
77866;SDS011;67271;59.120;37.970;2023-11-19T14:49:47;1.98;;;1.75;;
77866;SDS011;67271;59.120;37.970;2023-11-19T14:52:13;8.30;;;1.92;;
77866;SDS011;67271;59.120;37.970;2023-11-19T14:54:39;2.92;;;2.17;;
77866;SDS011;67271;59.120;37.970;2023-11-19T14:57:05;2.78;;;2.25;;
77866;SDS011;67271;59.120;37.970;2023-11-19T14:59:36;4.07;;;2.15;;
77866;SDS011;67271;59.120;37.970;2023-11-19T15:02:03;2.40;;;2.05;;
77866;SDS011;67271;59.120;37.970;2023-11-19T15:04:30;2.85;;;2.10;;